Ship Status Report: callsign AMOUK20

sailwx.info

Track history (hours):
 
Tides and Currents Weather Stations Pressure Air Temp Water Temp Dewpoint Dewpoint Depression Visibility Wind Speed Wind Dir Waves Ship Positions

Callsign AMOUK20 (name unknown)

Last reported at 2014-Sep-19 00:00 UTC. Time now 2014-Sep-19 01:56 UTC.
Position S 35°18' E 012°54'.

Barometer 1026.2 mb
Air temperature 11.2 ° C

Date/timePositionNaut miles runAvg speedWind from/ knotsBaromVisibWave heightAir tempDewpointWater temp
2014-Sep-19 00:00S 35°18' E 012°54'15 7.7 1026.2 11.2
2014-Sep-18 22:00S 35°06' E 013°06'6 6.0 1026.3 10.8
2014-Sep-18 21:00S 35°00' E 013°06'8 7.8 1026.0 10.6
2014-Sep-18 20:00S 34°54' E 013°12'8 7.8 1025.7 10.4
2014-Sep-18 19:00S 34°48' E 013°18'5 4.9 1025.7 10.2
2014-Sep-18 18:00S 34°48' E 013°24'6 6.0 1024.3 10.2
2014-Sep-18 17:00S 34°42' E 013°24'8 7.8 1023.7 10.3
2014-Sep-18 16:00S 34°36' E 013°30'10 9.9 1022.5 10.4
2014-Sep-18 15:00S 34°36' E 013°42'8 7.8 1022.0 10.0
2014-Sep-18 14:00S 34°30' E 013°48'10 9.9 1021.0 10.2
2014-Sep-18 13:00S 34°30' E 014°00'1211.6 1019.9 10.5
2014-Sep-18 12:00S 34°24' E 014°12'15 7.4 1019.2 10.9
2014-Sep-18 10:00S 34°24' E 014°30'5 5.0 1018.7 10.5
2014-Sep-18 09:00S 34°24' E 014°36'8 7.8 1018.1 10.0
2014-Sep-18 08:00S 34°18' E 014°42'5 5.0 1016.9 10.5
2014-Sep-18 07:00S 34°18' E 014°48'5 5.0 1015.6 10.8
2014-Sep-18 06:00S 34°18' E 014°54'10 9.9 1013.8 10.8
2014-Sep-18 05:00S 34°18' E 015°06'5 5.0 1012.4 10.5
2014-Sep-18 04:00S 34°18' E 015°12'5 5.0 1011.6 10.8
2014-Sep-18 03:00S 34°18' E 015°18'5 5.0 1010.0 11.5
2014-Sep-18 02:00S 34°18' E 015°24'5 5.0 1008.7 12.1
2014-Sep-18 01:00S 34°18' E 015°30'1211.6 1008.1 12.1
2014-Sep-18 00:00S 34°12' E 015°42'10 9.9 1007.1 12.3
2014-Sep-17 23:00S 34°12' E 015°54'20 9.9 1006.0 12.3
2014-Sep-17 21:00S 34°12' E 016°18'10 9.9 1007.1 12.9
2014-Sep-17 20:00S 34°12' E 016°30'1211.6 1007.8 12.8
2014-Sep-17 19:00S 34°06' E 016°42'1514.9 1007.9 13.4
2014-Sep-17 18:00S 34°06' E 017°00'10 9.9 1007.8 13.4
2014-Sep-17 17:00S 34°06' E 017°12'3015.2 1007.8 13.5
2014-Sep-17 15:00S 34°00' E 017°48'10 9.9 1008.3 12.8
2014-Sep-17 14:00S 34°00' E 018°00'10 9.9 1008.6 12.5
2014-Sep-17 13:00S 34°00' E 018°12'1211.6 1009.5 12.1
2014-Sep-17 12:00S 33°54' E 018°24'0 0.0 1009.6 12.4
2014-Sep-17 11:00S 33°54' E 018°24'0 0.0 1010.8 12.1
2014-Sep-17 10:00S 33°54' E 018°24'0 0.0 1011.3 12.4
2014-Sep-17 09:00S 33°54' E 018°24'0 0.0 1011.3 12.1
2014-Sep-17 08:00S 33°54' E 018°24'0 0.0 1011.4 12.5
2014-Sep-17 07:00S 33°54' E 018°24'0 0.0 1011.1 12.2
2014-Sep-17 06:00S 33°54' E 018°24'0 0.0 1011.0 12.3
2014-Sep-17 04:00S 33°54' E 018°24'0 0.0 1010.0 13.1
2014-Sep-17 03:00S 33°54' E 018°24'0 0.0 1009.4 13.4
2014-Sep-17 02:00S 33°54' E 018°24'0 0.0 1009.0 14.1
2014-Sep-17 01:00S 33°54' E 018°24'0 0.0 1008.8 14.9
2014-Sep-17 00:00S 33°54' E 018°24'0 0.0 1009.4 14.6
2014-Sep-16 23:00S 33°54' E 018°24'0 0.0 1008.8 14.9
2014-Sep-16 22:00S 33°54' E 018°24'0 0.0 1008.9 16.5
2014-Sep-16 21:00S 33°54' E 018°24'0 0.0 1009.3 16.9
2014-Sep-16 20:00S 33°54' E 018°24'0 0.0 1009.6 18.1
2014-Sep-16 19:00S 33°54' E 018°24'0 0.0 1009.5 18.2
2014-Sep-16 18:00S 33°54' E 018°24'0 0.0 1010.5 17.1
2014-Sep-16 16:00S 33°54' E 018°24'0 0.0 1011.0 18.7
2014-Sep-16 15:00S 33°54' E 018°24'0 0.0 1011.5 17.6
2014-Sep-16 14:00S 33°54' E 018°24'0 0.0 1011.8 18.1
2014-Sep-16 13:00S 33°54' E 018°24'0 0.0 1012.6 19.7
2014-Sep-16 12:00S 33°54' E 018°24'0 0.0 1013.5 19.2
2014-Sep-16 11:00S 33°54' E 018°24'0 0.0 1014.5 17.6
2014-Sep-16 10:00S 33°54' E 018°24'0 0.0 1015.4 16.3
2014-Sep-16 09:00S 33°54' E 018°24'0 0.0 1015.7 14.9
2014-Sep-16 08:00S 33°54' E 018°24'0 0.0 1016.3 13.8
2014-Sep-16 07:00S 33°54' E 018°24'0 0.0 1016.3 13.4
2014-Sep-16 06:00S 33°54' E 018°24'0 0.0 1016.7 12.7
2014-Sep-16 05:00S 33°54' E 018°24'0 0.0 1016.5 12.6
2014-Sep-16 04:00S 33°54' E 018°24'0 0.0 1016.6 12.4
2014-Sep-16 03:00S 33°54' E 018°24'0 0.0 1016.8 12.4
2014-Sep-16 02:00S 33°54' E 018°24'0 0.0 1017.0 12.9
2014-Sep-16 01:00S 33°54' E 018°24'0 0.0 1017.5 12.8
2014-Sep-16 00:00S 33°54' E 018°24'0 0.0 1018.3 12.7
2014-Sep-15 23:00S 33°54' E 018°24'0 0.0 1018.7 12.8
2014-Sep-15 22:00S 33°54' E 018°24'0 0.0 1018.9 12.6
2014-Sep-15 20:00S 33°54' E 018°24'0 0.0 1019.5 13.1
2014-Sep-15 19:00S 33°54' E 018°24'0 0.0 1019.3 13.9
2014-Sep-15 18:00S 33°54' E 018°24'0 0.0 1018.9 14.8
2014-Sep-15 17:00S 33°54' E 018°24'0 0.0 1018.8 14.9
2014-Sep-15 16:00S 33°54' E 018°24'0 0.0 1018.5 14.4
2014-Sep-15 15:00S 33°54' E 018°24'0 0.0 1018.2 14.1
2014-Sep-15 13:00S 33°54' E 018°24'0 0.0 1018.8 13.7
2014-Sep-15 11:00S 33°54' E 018°24'0 0.0 1020.0 13.9
2014-Sep-15 09:00S 33°54' E 018°24'0 0.0 1020.6 14.0
2014-Sep-15 08:00S 33°54' E 018°24'0 0.0 1020.3 13.0
2014-Sep-15 07:00S 33°54' E 018°24'0 0.0 1020.5 11.0
2014-Sep-15 06:00S 33°54' E 018°24'0 0.0 1020.7 10.9
2014-Sep-15 05:00S 33°54' E 018°24'0 0.0 1020.1 11.1
2014-Sep-15 03:00S 33°54' E 018°24'0 0.0 1019.5 11.4
2014-Sep-15 02:00S 33°54' E 018°24'0 0.0 1019.0 11.5
2014-Sep-15 01:00S 33°54' E 018°24'0 0.0 1018.8 11.4
2014-Sep-15 00:00S 33°54' E 018°24'0 0.0 1019.2 11.5
2014-Sep-14 22:00S 33°54' E 018°24'0 0.0 1019.6 12.5
2014-Sep-14 21:00S 33°54' E 018°24'0 0.0 1019.4 12.5
2014-Sep-14 20:00S 33°54' E 018°24'0 0.0 1018.8 12.6
2014-Sep-14 19:00S 33°54' E 018°24'0 0.0 1017.7 12.6
2014-Sep-14 18:00S 33°54' E 018°24'0 0.0 1017.1 12.9
2014-Sep-14 16:00S 33°54' E 018°24'0 0.0 1015.4 16.1
2014-Sep-14 15:00S 33°54' E 018°24'0 0.0 1015.3 16.5
2014-Sep-14 14:00S 33°54' E 018°24'0 0.0 1014.6 18.7
2014-Sep-14 12:00S 33°54' E 018°24'0 0.0 1015.6 18.5
2014-Sep-14 10:00S 33°54' E 018°24'0 0.0 1016.7 15.5
2014-Sep-14 09:00S 33°54' E 018°24'0 0.0 1016.8 13.4
2014-Sep-14 08:00S 33°54' E 018°24'0 0.0 1016.5 13.3
2014-Sep-14 07:00S 33°54' E 018°24'0 0.0 1016.9 12.8
2014-Sep-14 06:00S 33°54' E 018°24'0 0.0 1016.2 12.1
2014-Sep-14 05:00S 33°54' E 018°24'0 0.0 1015.9 11.2
2014-Sep-14 04:00S 33°54' E 018°24'0 0.0 1015.6 11.2
2014-Sep-14 03:00S 33°54' E 018°24'0 0.0 1015.9 11.5
2014-Sep-14 02:00S 33°54' E 018°24'0 0.0 1016.6 11.3
2014-Sep-14 01:00S 33°54' E 018°24'0 0.0 1017.2 12.0
2014-Sep-14 00:00S 33°54' E 018°24'0 0.0 1018.0 12.4
2014-Sep-13 23:00S 33°54' E 018°24'0 0.0 1018.3 12.5
2014-Sep-13 22:00S 33°54' E 018°24'0 0.0 1018.5 12.4
2014-Sep-13 21:00S 33°54' E 018°24'0 0.0 1018.9 12.8
2014-Sep-13 19:00S 33°54' E 018°24'0 0.0 1020.0 13.7
2014-Sep-13 18:00S 33°54' E 018°24'0 0.0 1019.6 13.9
2014-Sep-13 17:00S 33°54' E 018°24'0 0.0 1019.6 15.2
2014-Sep-13 16:00S 33°54' E 018°24'0 0.0 1019.4 16.9
2014-Sep-13 15:00S 33°54' E 018°24'0 0.0 1019.0 16.5
2014-Sep-13 14:00S 33°54' E 018°24'0 0.0 1018.8 17.5
2014-Sep-13 13:00S 33°54' E 018°24'0 0.0 1019.1 16.7
2014-Sep-13 12:00S 33°54' E 018°24'0 0.0 1019.7 15.7
2014-Sep-13 11:00S 33°54' E 018°24'0 0.0 1020.2 15.8
2014-Sep-13 09:00S 33°54' E 018°24'0 0.0 1021.0 13.3
2014-Sep-13 07:00S 33°54' E 018°24'0 0.0 1020.9 11.5
2014-Sep-13 06:00S 33°54' E 018°24'0 0.0 1020.4 10.4
2014-Sep-13 05:00S 33°54' E 018°24'0 0.0 1019.9 9.9
2014-Sep-13 04:00S 33°54' E 018°24'0 0.0 1019.6 10.0
2014-Sep-13 03:00S 33°54' E 018°24'0 0.0 1020.0 9.6
2014-Sep-13 02:00S 33°54' E 018°24'0 0.0 1020.3 10.4
2014-Sep-13 01:00S 33°54' E 018°24'0 0.0 1020.4 10.3
2014-Sep-13 00:00S 33°54' E 018°24'0 0.0 1021.0 10.9
2014-Sep-12 23:00S 33°54' E 018°24'0 0.0 1021.5 11.1
2014-Sep-12 22:00S 33°54' E 018°24'0 0.0 1021.5 11.0
2014-Sep-12 21:00S 33°54' E 018°24'0 0.0 1021.6 11.7
2014-Sep-12 19:00S 33°54' E 018°24'0 0.0 1021.9 12.6
2014-Sep-12 17:00S 33°54' E 018°24'0 0.0 1021.4 13.1
2014-Sep-12 16:00S 33°54' E 018°24'0 0.0 1021.5 13.5
2014-Sep-12 15:00S 33°54' E 018°24'0 0.0 1021.7 13.1
2014-Sep-12 14:00S 33°54' E 018°24'0 0.0 1022.4 13.4
2014-Sep-12 13:00S 33°54' E 018°24'0 0.0 1022.6 13.1
2014-Sep-12 12:00S 33°54' E 018°24'0 0.0 1023.0 12.9
2014-Sep-12 11:00S 33°54' E 018°24'0 0.0 1023.8 12.8
2014-Sep-12 10:00S 33°54' E 018°24'0 0.0 1023.8 13.9
2014-Sep-12 09:00S 33°54' E 018°24'0 0.0 1023.9 13.5
2014-Sep-12 08:00S 33°54' E 018°24'0 0.0 1023.8 13.4
2014-Sep-12 07:00S 33°54' E 018°24'0 0.0 1024.0 12.4
2014-Sep-12 06:00S 33°54' E 018°24'0 0.0 1023.5 11.9
2014-Sep-12 05:00S 33°54' E 018°24'0 0.0 1023.1 11.5
2014-Sep-12 04:00S 33°54' E 018°24'0 0.0 1022.5 12.0
2014-Sep-12 03:00S 33°54' E 018°24'0 0.0 1021.8 11.6
2014-Sep-12 02:00S 33°54' E 018°24'0 0.0 1021.8 12.0
2014-Sep-12 01:00S 33°54' E 018°24'0 0.0 1021.8 11.6
2014-Sep-12 00:00S 33°54' E 018°24'0 0.0 1021.7 12.2
2014-Sep-11 23:00S 33°54' E 018°24'0 0.0 1021.1 12.7
2014-Sep-11 22:00S 33°54' E 018°24'0 0.0 1020.8 13.4
2014-Sep-11 21:00S 33°54' E 018°24'0 0.0 1020.5 13.5
2014-Sep-11 20:00S 33°54' E 018°24'0 0.0 1020.0 13.6
2014-Sep-11 18:00S 33°54' E 018°24'0 0.0 1018.2 13.4
2014-Sep-11 16:00S 33°54' E 018°24'0 0.0 1016.5 14.2
2014-Sep-11 15:00S 33°54' E 018°24'0 0.0 1015.8 14.5
2014-Sep-11 14:00S 33°54' E 018°24'0 0.0 1015.6 15.3
2014-Sep-11 13:00S 33°54' E 018°24'0 0.0 1016.3 15.3
2014-Sep-11 12:00S 33°54' E 018°24'0 0.0 1016.5 18.0
2014-Sep-11 11:00S 33°54' E 018°24'0 0.0 1016.9 16.5
2014-Sep-11 10:00S 33°54' E 018°24'0 0.0 1016.8 15.2
2014-Sep-11 09:00S 33°54' E 018°24'0 0.0 1016.8 14.6
2014-Sep-11 08:00S 33°54' E 018°24'0 0.0 1017.2 15.2
2014-Sep-11 06:00S 33°54' E 018°24'0 0.0 1016.2 13.8
2014-Sep-11 05:00S 33°54' E 018°24'0 0.0 1015.7 12.8
2014-Sep-11 04:00S 33°54' E 018°24'0 0.0 1015.2 12.9
2014-Sep-11 03:00S 33°54' E 018°24'0 0.0 1014.9 13.3
2014-Sep-11 01:00S 33°54' E 018°24'0 0.0 1015.7 13.7
2014-Sep-11 00:00S 33°54' E 018°24'0 0.0 1015.9 13.4
2014-Sep-10 23:00S 33°54' E 018°24'0 0.0 1016.0 14.0
2014-Sep-10 21:00S 33°54' E 018°24'0 0.0 1016.2 13.7
2014-Sep-10 20:00S 33°54' E 018°24'0 0.0 1016.4 13.6
2014-Sep-10 19:00S 33°54' E 018°24'0 0.0 1016.4 13.5
2014-Sep-10 18:00S 33°54' E 018°24'0 0.0 1016.0 13.5
2014-Sep-10 17:00S 33°54' E 018°24'0 0.0 1016.0 13.4
2014-Sep-10 16:00S 33°54' E 018°24'0 0.0 1015.9 13.2
2014-Sep-10 15:00S 33°54' E 018°24'0 0.0 1016.0 13.7
2014-Sep-10 14:00S 33°54' E 018°24'0 0.0 1016.1 13.8
2014-Sep-10 13:00S 33°54' E 018°24'0 0.0 1016.7 13.8
2014-Sep-10 12:00S 33°54' E 018°24'0 0.0 1017.1 14.3
2014-Sep-10 11:00S 33°54' E 018°24'0 0.0 1018.0 14.7
2014-Sep-10 10:00S 33°54' E 018°24'0 0.0 1018.4 14.8
2014-Sep-10 09:00S 33°54' E 018°24'0 0.0 1018.7 13.5
2014-Sep-10 07:00S 33°54' E 018°24'0 0.0 1018.7 12.8
2014-Sep-10 06:00S 33°54' E 018°24'0 0.0 1018.2 13.8
2014-Sep-10 04:00S 33°54' E 018°24'0 0.0 1017.4 13.6
2014-Sep-10 02:00S 33°54' E 018°24'0 0.0 1016.9 13.5
2014-Sep-10 01:00S 33°54' E 018°24'0 0.0 1017.1 13.9
2014-Sep-10 00:00S 33°54' E 018°24'0 0.0 1017.3 14.0
2014-Sep-09 22:00S 33°54' E 018°24'0 0.0 1017.6 14.7
2014-Sep-09 21:00S 33°54' E 018°24'0 0.0 1017.4 14.5
2014-Sep-09 20:00S 33°54' E 018°24'0 0.0 1017.1 14.0
2014-Sep-09 19:00S 33°54' E 018°24'0 0.0 1016.5 13.1
2014-Sep-09 18:00S 33°54' E 018°24'0 0.0 1016.9 14.0
2014-Sep-09 17:00S 33°54' E 018°24'0 0.0 1016.5 14.3
2014-Sep-09 16:00S 33°54' E 018°24'0 0.0 1016.2 14.1
2014-Sep-09 15:00S 33°54' E 018°24'0 0.0 1015.6 14.9
2014-Sep-09 14:00S 33°54' E 018°24'0 0.0 1015.6 16.1
2014-Sep-09 12:00S 33°54' E 018°24'0 0.0 1015.7 18.2
2014-Sep-09 10:00S 33°54' E 018°24'0 0.0 1016.5 17.7
2014-Sep-09 09:00S 33°54' E 018°24'0 0.0 1016.4 17.6
2014-Sep-09 08:00S 33°54' E 018°24'0 0.0 1016.9 16.3
2014-Sep-09 07:00S 33°54' E 018°24'0 0.0 1017.1 14.8
2014-Sep-09 06:00S 33°54' E 018°24'0 0.0 1016.6 13.8
2014-Sep-09 04:00S 33°54' E 018°24'0 0.0 1016.6 13.0
2014-Sep-09 03:00S 33°54' E 018°24'0 0.0 1015.7 12.5
2014-Sep-09 02:00S 33°54' E 018°24'0 0.0 1016.4 13.1
2014-Sep-09 01:00S 33°54' E 018°24'0 0.0 1017.0 14.3
2014-Sep-09 00:00S 33°54' E 018°24'   1017.7 13.6
Track history (hours):
 
Tides and Currents Weather Stations Pressure Air Temp Water Temp Dewpoint Dewpoint Depression Visibility Wind Speed Wind Dir Waves Ship Positions

Callsign AMOUK20 (name unknown)

Last reported at 2014-Sep-19 00:00 UTC. Time now 2014-Sep-19 01:56 UTC.
Position S 35°18' E 012°54'.

Barometer 1026.2 mb
Air temperature 11.2 ° C

Date/timePositionNaut miles runAvg speedWind from/ knotsBaromVisibWave heightAir tempDewpointWater temp
2014-Sep-19 00:00S 35°18' E 012°54'15 7.7 1026.2 11.2
2014-Sep-18 22:00S 35°06' E 013°06'6 6.0 1026.3 10.8
2014-Sep-18 21:00S 35°00' E 013°06'8 7.8 1026.0 10.6
2014-Sep-18 20:00S 34°54' E 013°12'8 7.8 1025.7 10.4
2014-Sep-18 19:00S 34°48' E 013°18'5 4.9 1025.7 10.2
2014-Sep-18 18:00S 34°48' E 013°24'6 6.0 1024.3 10.2
2014-Sep-18 17:00S 34°42' E 013°24'8 7.8 1023.7 10.3
2014-Sep-18 16:00S 34°36' E 013°30'10 9.9 1022.5 10.4
2014-Sep-18 15:00S 34°36' E 013°42'8 7.8 1022.0 10.0
2014-Sep-18 14:00S 34°30' E 013°48'10 9.9 1021.0 10.2
2014-Sep-18 13:00S 34°30' E 014°00'1211.6 1019.9 10.5
2014-Sep-18 12:00S 34°24' E 014°12'15 7.4 1019.2 10.9
2014-Sep-18 10:00S 34°24' E 014°30'5 5.0 1018.7 10.5
2014-Sep-18 09:00S 34°24' E 014°36'8 7.8 1018.1 10.0
2014-Sep-18 08:00S 34°18' E 014°42'5 5.0 1016.9 10.5
2014-Sep-18 07:00S 34°18' E 014°48'5 5.0 1015.6 10.8
2014-Sep-18 06:00S 34°18' E 014°54'10 9.9 1013.8 10.8
2014-Sep-18 05:00S 34°18' E 015°06'5 5.0 1012.4 10.5
2014-Sep-18 04:00S 34°18' E 015°12'5 5.0 1011.6 10.8
2014-Sep-18 03:00S 34°18' E 015°18'5 5.0 1010.0 11.5
2014-Sep-18 02:00S 34°18' E 015°24'5 5.0 1008.7 12.1
2014-Sep-18 01:00S 34°18' E 015°30'1211.6 1008.1 12.1
2014-Sep-18 00:00S 34°12' E 015°42'10 9.9 1007.1 12.3
2014-Sep-17 23:00S 34°12' E 015°54'20 9.9 1006.0 12.3
2014-Sep-17 21:00S 34°12' E 016°18'10 9.9 1007.1 12.9
2014-Sep-17 20:00S 34°12' E 016°30'1211.6 1007.8 12.8
2014-Sep-17 19:00S 34°06' E 016°42'1514.9 1007.9 13.4
2014-Sep-17 18:00S 34°06' E 017°00'10 9.9 1007.8 13.4
2014-Sep-17 17:00S 34°06' E 017°12'3015.2 1007.8 13.5
2014-Sep-17 15:00S 34°00' E 017°48'10 9.9 1008.3 12.8
2014-Sep-17 14:00S 34°00' E 018°00'10 9.9 1008.6 12.5
2014-Sep-17 13:00S 34°00' E 018°12'1211.6 1009.5 12.1
2014-Sep-17 12:00S 33°54' E 018°24'0 0.0 1009.6 12.4
2014-Sep-17 11:00S 33°54' E 018°24'0 0.0 1010.8 12.1
2014-Sep-17 10:00S 33°54' E 018°24'0 0.0 1011.3 12.4
2014-Sep-17 09:00S 33°54' E 018°24'0 0.0 1011.3 12.1
2014-Sep-17 08:00S 33°54' E 018°24'0 0.0 1011.4 12.5
2014-Sep-17 07:00S 33°54' E 018°24'0 0.0 1011.1 12.2
2014-Sep-17 06:00S 33°54' E 018°24'0 0.0 1011.0 12.3
2014-Sep-17 04:00S 33°54' E 018°24'0 0.0 1010.0 13.1
2014-Sep-17 03:00S 33°54' E 018°24'0 0.0 1009.4 13.4
2014-Sep-17 02:00S 33°54' E 018°24'0 0.0 1009.0 14.1
2014-Sep-17 01:00S 33°54' E 018°24'0 0.0 1008.8 14.9
2014-Sep-17 00:00S 33°54' E 018°24'0 0.0 1009.4 14.6
2014-Sep-16 23:00S 33°54' E 018°24'0 0.0 1008.8 14.9
2014-Sep-16 22:00S 33°54' E 018°24'0 0.0 1008.9 16.5
2014-Sep-16 21:00S 33°54' E 018°24'0 0.0 1009.3 16.9
2014-Sep-16 20:00S 33°54' E 018°24'0 0.0 1009.6 18.1
2014-Sep-16 19:00S 33°54' E 018°24'0 0.0 1009.5 18.2
2014-Sep-16 18:00S 33°54' E 018°24'0 0.0 1010.5 17.1
2014-Sep-16 16:00S 33°54' E 018°24'0 0.0 1011.0 18.7
2014-Sep-16 15:00S 33°54' E 018°24'0 0.0 1011.5 17.6
2014-Sep-16 14:00S 33°54' E 018°24'0 0.0 1011.8 18.1
2014-Sep-16 13:00S 33°54' E 018°24'0 0.0 1012.6 19.7
2014-Sep-16 12:00S 33°54' E 018°24'0 0.0 1013.5 19.2
2014-Sep-16 11:00S 33°54' E 018°24'0 0.0 1014.5 17.6
2014-Sep-16 10:00S 33°54' E 018°24'0 0.0 1015.4 16.3
2014-Sep-16 09:00S 33°54' E 018°24'0 0.0 1015.7 14.9
2014-Sep-16 08:00S 33°54' E 018°24'0 0.0 1016.3 13.8
2014-Sep-16 07:00S 33°54' E 018°24'0 0.0 1016.3 13.4
2014-Sep-16 06:00S 33°54' E 018°24'0 0.0 1016.7 12.7
2014-Sep-16 05:00S 33°54' E 018°24'0 0.0 1016.5 12.6
2014-Sep-16 04:00S 33°54' E 018°24'0 0.0 1016.6 12.4
2014-Sep-16 03:00S 33°54' E 018°24'0 0.0 1016.8 12.4
2014-Sep-16 02:00S 33°54' E 018°24'0 0.0 1017.0 12.9
2014-Sep-16 01:00S 33°54' E 018°24'0 0.0 1017.5 12.8
2014-Sep-16 00:00S 33°54' E 018°24'0 0.0 1018.3 12.7
2014-Sep-15 23:00S 33°54' E 018°24'0 0.0 1018.7 12.8
2014-Sep-15 22:00S 33°54' E 018°24'0 0.0 1018.9 12.6
2014-Sep-15 20:00S 33°54' E 018°24'0 0.0 1019.5 13.1
2014-Sep-15 19:00S 33°54' E 018°24'0 0.0 1019.3 13.9
2014-Sep-15 18:00S 33°54' E 018°24'0 0.0 1018.9 14.8
2014-Sep-15 17:00S 33°54' E 018°24'0 0.0 1018.8 14.9
2014-Sep-15 16:00S 33°54' E 018°24'0 0.0 1018.5 14.4
2014-Sep-15 15:00S 33°54' E 018°24'0 0.0 1018.2 14.1
2014-Sep-15 13:00S 33°54' E 018°24'0 0.0 1018.8 13.7
2014-Sep-15 11:00S 33°54' E 018°24'0 0.0 1020.0 13.9
2014-Sep-15 09:00S 33°54' E 018°24'0 0.0 1020.6 14.0
2014-Sep-15 08:00S 33°54' E 018°24'0 0.0 1020.3 13.0
2014-Sep-15 07:00S 33°54' E 018°24'0 0.0 1020.5 11.0
2014-Sep-15 06:00S 33°54' E 018°24'0 0.0 1020.7 10.9
2014-Sep-15 05:00S 33°54' E 018°24'0 0.0 1020.1 11.1
2014-Sep-15 03:00S 33°54' E 018°24'0 0.0 1019.5 11.4
2014-Sep-15 02:00S 33°54' E 018°24'0 0.0 1019.0 11.5
2014-Sep-15 01:00S 33°54' E 018°24'0 0.0 1018.8 11.4
2014-Sep-15 00:00S 33°54' E 018°24'0 0.0 1019.2 11.5
2014-Sep-14 22:00S 33°54' E 018°24'0 0.0 1019.6 12.5
2014-Sep-14 21:00S 33°54' E 018°24'0 0.0 1019.4 12.5
2014-Sep-14 20:00S 33°54' E 018°24'0 0.0 1018.8 12.6
2014-Sep-14 19:00S 33°54' E 018°24'0 0.0 1017.7 12.6
2014-Sep-14 18:00S 33°54' E 018°24'0 0.0 1017.1 12.9
2014-Sep-14 16:00S 33°54' E 018°24'0 0.0 1015.4 16.1
2014-Sep-14 15:00S 33°54' E 018°24'0 0.0 1015.3 16.5
2014-Sep-14 14:00S 33°54' E 018°24'0 0.0 1014.6 18.7
2014-Sep-14 12:00S 33°54' E 018°24'0 0.0 1015.6 18.5
2014-Sep-14 10:00S 33°54' E 018°24'0 0.0 1016.7 15.5
2014-Sep-14 09:00S 33°54' E 018°24'0 0.0 1016.8 13.4
2014-Sep-14 08:00S 33°54' E 018°24'0 0.0 1016.5 13.3
2014-Sep-14 07:00S 33°54' E 018°24'0 0.0 1016.9 12.8
2014-Sep-14 06:00S 33°54' E 018°24'0 0.0 1016.2 12.1
2014-Sep-14 05:00S 33°54' E 018°24'0 0.0 1015.9 11.2
2014-Sep-14 04:00S 33°54' E 018°24'0 0.0 1015.6 11.2
2014-Sep-14 03:00S 33°54' E 018°24'0 0.0 1015.9 11.5
2014-Sep-14 02:00S 33°54' E 018°24'0 0.0 1016.6 11.3
2014-Sep-14 01:00S 33°54' E 018°24'0 0.0 1017.2 12.0
2014-Sep-14 00:00S 33°54' E 018°24'0 0.0 1018.0 12.4
2014-Sep-13 23:00S 33°54' E 018°24'0 0.0 1018.3 12.5
2014-Sep-13 22:00S 33°54' E 018°24'0 0.0 1018.5 12.4
2014-Sep-13 21:00S 33°54' E 018°24'0 0.0 1018.9 12.8
2014-Sep-13 19:00S 33°54' E 018°24'0 0.0 1020.0 13.7
2014-Sep-13 18:00S 33°54' E 018°24'0 0.0 1019.6 13.9
2014-Sep-13 17:00S 33°54' E 018°24'0 0.0 1019.6 15.2
2014-Sep-13 16:00S 33°54' E 018°24'0 0.0 1019.4 16.9
2014-Sep-13 15:00S 33°54' E 018°24'0 0.0 1019.0 16.5
2014-Sep-13 14:00S 33°54' E 018°24'0 0.0 1018.8 17.5
2014-Sep-13 13:00S 33°54' E 018°24'0 0.0 1019.1 16.7
2014-Sep-13 12:00S 33°54' E 018°24'0 0.0 1019.7 15.7
2014-Sep-13 11:00S 33°54' E 018°24'0 0.0 1020.2 15.8
2014-Sep-13 09:00S 33°54' E 018°24'0 0.0 1021.0 13.3
2014-Sep-13 07:00S 33°54' E 018°24'0 0.0 1020.9 11.5
2014-Sep-13 06:00S 33°54' E 018°24'0 0.0 1020.4 10.4
2014-Sep-13 05:00S 33°54' E 018°24'0 0.0 1019.9 9.9
2014-Sep-13 04:00S 33°54' E 018°24'0 0.0 1019.6 10.0
2014-Sep-13 03:00S 33°54' E 018°24'0 0.0 1020.0 9.6
2014-Sep-13 02:00S 33°54' E 018°24'0 0.0 1020.3 10.4
2014-Sep-13 01:00S 33°54' E 018°24'0 0.0 1020.4 10.3
2014-Sep-13 00:00S 33°54' E 018°24'0 0.0 1021.0 10.9
2014-Sep-12 23:00S 33°54' E 018°24'0 0.0 1021.5 11.1
2014-Sep-12 22:00S 33°54' E 018°24'0 0.0 1021.5 11.0
2014-Sep-12 21:00S 33°54' E 018°24'0 0.0 1021.6 11.7
2014-Sep-12 19:00S 33°54' E 018°24'0 0.0 1021.9 12.6
2014-Sep-12 17:00S 33°54' E 018°24'0 0.0 1021.4 13.1
2014-Sep-12 16:00S 33°54' E 018°24'0 0.0 1021.5 13.5
2014-Sep-12 15:00S 33°54' E 018°24'0 0.0 1021.7 13.1
2014-Sep-12 14:00S 33°54' E 018°24'0 0.0 1022.4 13.4
2014-Sep-12 13:00S 33°54' E 018°24'0 0.0 1022.6 13.1
2014-Sep-12 12:00S 33°54' E 018°24'0 0.0 1023.0 12.9
2014-Sep-12 11:00S 33°54' E 018°24'0 0.0 1023.8 12.8
2014-Sep-12 10:00S 33°54' E 018°24'0 0.0 1023.8 13.9
2014-Sep-12 09:00S 33°54' E 018°24'0 0.0 1023.9 13.5
2014-Sep-12 08:00S 33°54' E 018°24'0 0.0 1023.8 13.4
2014-Sep-12 07:00S 33°54' E 018°24'0 0.0 1024.0 12.4
2014-Sep-12 06:00S 33°54' E 018°24'0 0.0 1023.5 11.9
2014-Sep-12 05:00S 33°54' E 018°24'0 0.0 1023.1 11.5
2014-Sep-12 04:00S 33°54' E 018°24'0 0.0 1022.5 12.0
2014-Sep-12 03:00S 33°54' E 018°24'0 0.0 1021.8 11.6
2014-Sep-12 02:00S 33°54' E 018°24'0 0.0 1021.8 12.0
2014-Sep-12 01:00S 33°54' E 018°24'0 0.0 1021.8 11.6
2014-Sep-12 00:00S 33°54' E 018°24'0 0.0 1021.7 12.2
2014-Sep-11 23:00S 33°54' E 018°24'0 0.0 1021.1 12.7
2014-Sep-11 22:00S 33°54' E 018°24'0 0.0 1020.8 13.4
2014-Sep-11 21:00S 33°54' E 018°24'0 0.0 1020.5 13.5
2014-Sep-11 20:00S 33°54' E 018°24'0 0.0 1020.0 13.6
2014-Sep-11 18:00S 33°54' E 018°24'0 0.0 1018.2 13.4
2014-Sep-11 16:00S 33°54' E 018°24'0 0.0 1016.5 14.2
2014-Sep-11 15:00S 33°54' E 018°24'0 0.0 1015.8 14.5
2014-Sep-11 14:00S 33°54' E 018°24'0 0.0 1015.6 15.3
2014-Sep-11 13:00S 33°54' E 018°24'0 0.0 1016.3 15.3
2014-Sep-11 12:00S 33°54' E 018°24'0 0.0 1016.5 18.0
2014-Sep-11 11:00S 33°54' E 018°24'0 0.0 1016.9 16.5
2014-Sep-11 10:00S 33°54' E 018°24'0 0.0 1016.8 15.2
2014-Sep-11 09:00S 33°54' E 018°24'0 0.0 1016.8 14.6
2014-Sep-11 08:00S 33°54' E 018°24'0 0.0 1017.2 15.2
2014-Sep-11 06:00S 33°54' E 018°24'0 0.0 1016.2 13.8
2014-Sep-11 05:00S 33°54' E 018°24'0 0.0 1015.7 12.8
2014-Sep-11 04:00S 33°54' E 018°24'0 0.0 1015.2 12.9
2014-Sep-11 03:00S 33°54' E 018°24'0 0.0 1014.9 13.3
2014-Sep-11 01:00S 33°54' E 018°24'0 0.0 1015.7 13.7
2014-Sep-11 00:00S 33°54' E 018°24'0 0.0 1015.9 13.4
2014-Sep-10 23:00S 33°54' E 018°24'0 0.0 1016.0 14.0
2014-Sep-10 21:00S 33°54' E 018°24'0 0.0 1016.2 13.7
2014-Sep-10 20:00S 33°54' E 018°24'0 0.0 1016.4 13.6
2014-Sep-10 19:00S 33°54' E 018°24'0 0.0 1016.4 13.5
2014-Sep-10 18:00S 33°54' E 018°24'0 0.0 1016.0 13.5
2014-Sep-10 17:00S 33°54' E 018°24'0 0.0 1016.0 13.4
2014-Sep-10 16:00S 33°54' E 018°24'0 0.0 1015.9 13.2
2014-Sep-10 15:00S 33°54' E 018°24'0 0.0 1016.0 13.7
2014-Sep-10 14:00S 33°54' E 018°24'0 0.0 1016.1 13.8
2014-Sep-10 13:00S 33°54' E 018°24'0 0.0 1016.7 13.8
2014-Sep-10 12:00S 33°54' E 018°24'0 0.0 1017.1 14.3
2014-Sep-10 11:00S 33°54' E 018°24'0 0.0 1018.0 14.7
2014-Sep-10 10:00S 33°54' E 018°24'0 0.0 1018.4 14.8
2014-Sep-10 09:00S 33°54' E 018°24'0 0.0 1018.7 13.5
2014-Sep-10 07:00S 33°54' E 018°24'0 0.0 1018.7 12.8
2014-Sep-10 06:00S 33°54' E 018°24'0 0.0 1018.2 13.8
2014-Sep-10 04:00S 33°54' E 018°24'0 0.0 1017.4 13.6
2014-Sep-10 02:00S 33°54' E 018°24'0 0.0 1016.9 13.5
2014-Sep-10 01:00S 33°54' E 018°24'0 0.0 1017.1 13.9
2014-Sep-10 00:00S 33°54' E 018°24'0 0.0 1017.3 14.0
2014-Sep-09 22:00S 33°54' E 018°24'0 0.0 1017.6 14.7
2014-Sep-09 21:00S 33°54' E 018°24'0 0.0 1017.4 14.5
2014-Sep-09 20:00S 33°54' E 018°24'0 0.0 1017.1 14.0
2014-Sep-09 19:00S 33°54' E 018°24'0 0.0 1016.5 13.1
2014-Sep-09 18:00S 33°54' E 018°24'0 0.0 1016.9 14.0
2014-Sep-09 17:00S 33°54' E 018°24'0 0.0 1016.5 14.3
2014-Sep-09 16:00S 33°54' E 018°24'0 0.0 1016.2 14.1
2014-Sep-09 15:00S 33°54' E 018°24'0 0.0 1015.6 14.9
2014-Sep-09 14:00S 33°54' E 018°24'0 0.0 1015.6 16.1
2014-Sep-09 12:00S 33°54' E 018°24'0 0.0 1015.7 18.2
2014-Sep-09 10:00S 33°54' E 018°24'0 0.0 1016.5 17.7
2014-Sep-09 09:00S 33°54' E 018°24'0 0.0 1016.4 17.6
2014-Sep-09 08:00S 33°54' E 018°24'0 0.0 1016.9 16.3
2014-Sep-09 07:00S 33°54' E 018°24'0 0.0 1017.1 14.8
2014-Sep-09 06:00S 33°54' E 018°24'0 0.0 1016.6 13.8
2014-Sep-09 04:00S 33°54' E 018°24'0 0.0 1016.6 13.0
2014-Sep-09 03:00S 33°54' E 018°24'0 0.0 1015.7 12.5
2014-Sep-09 02:00S 33°54' E 018°24'0 0.0 1016.4 13.1
2014-Sep-09 01:00S 33°54' E 018°24'0 0.0 1017.0 14.3
2014-Sep-09 00:00S 33°54' E 018°24'   1017.7 13.6

Dump ship's entire track history